Terminal Aerodrome Forecast
Issued by NWS Portland, OR

Home | Current Version | Previous Version | Text Only | Print | Product List | Glossary On
Versions: 1 2 3 4 5 6 7 8 9 10 11 12 13 14 15 16 17 18 19 20
000
FTUS46 KPQR 260804 AAA
TAFAST
TAF AMD
KAST 260804Z 2608/2706 32007KT P6SM OVC012
     FM261900 31012KT P6SM OVC018
     FM270000 31014G21KT P6SM OVC015
     FM270200 31013KT P6SM OVC007=

USA.gov is the U.S. government's official web portal to all federal, state and local government web resources and services.